Bautista Pino — EASK — position and weather

sailwx.info

Track history (hours):
 
Tides and Currents Weather Stations Pressure Air Temp Water Temp Dewpoint Dewpoint Depression Visibility Wind Speed Wind Dir Waves Ship Positions

Bautista Pino

Last reported at 2017-Mar-27 00:13 UTC. Time now 2017-Mar-27 14:41 UTC.
Position N 43°46' W 007°27'.

Length 29 m; draft 3.5 m.

Type: Fishing. MMSI: 224181290.

Date/timePositionNaut miles runAvg speedWind from/ knotsBaromVisibWave heightAir tempDewpointWater temp
2017-Mar-27 00:13N 43°46' W 007°27'6 9.5
2017-Mar-26 23:34N 43°44' W 007°35'2 1.5
2017-Mar-26 22:33N 43°45' W 007°33'5 4.5
2017-Mar-26 21:34N 43°41' W 007°36'0 0.0
2017-Mar-26 20:34N 43°41' W 007°36'0 0.0
2017-Mar-25 08:34N 43°41' W 007°36'0 0.0
2017-Mar-25 07:33N 43°41' W 007°36'0 0.0
2017-Mar-24 20:27N 43°41' W 007°36'2 2.0
2017-Mar-24 19:33N 43°43' W 007°36'9 8.6
2017-Mar-24 18:33N 43°50' W 007°42'3 0.2
2017-Mar-24 00:22N 43°48' W 007°40'6 7.8
2017-Mar-23 23:33N 43°42' W 007°36'1 1.1
2017-Mar-23 22:33N 43°41' W 007°36'5 4.8
2017-Mar-23 21:33N 43°45' W 007°33'5 0.4
2017-Mar-23 08:28N 43°46' W 007°26'4 3.8
2017-Mar-23 07:33N 43°47' W 007°31'4 4.0
2017-Mar-23 06:33N 43°48' W 007°36'3 2.7
2017-Mar-23 05:33N 43°50' W 007°39'2 2.4
2017-Mar-23 04:33N 43°48' W 007°38'7 7.0
2017-Mar-23 03:33N 43°41' W 007°36'0 0.0
2017-Mar-23 02:33N 43°41' W 007°36'0 0.0
2017-Mar-23 01:33N 43°41' W 007°36'0 0.0
2017-Mar-23 00:33N 43°41' W 007°36'0 0.0
2017-Mar-22 23:33N 43°41' W 007°36'0 0.0
2017-Mar-22 22:33N 43°41' W 007°36'0 0.0
2017-Mar-22 21:33N 43°41' W 007°36'0 0.0
2017-Mar-22 20:33N 43°41' W 007°36'0 0.0
2017-Mar-22 19:33N 43°41' W 007°36'0 0.0
2017-Mar-22 18:33N 43°41' W 007°36'2 1.9
2017-Mar-22 17:33N 43°43' W 007°36'4 4.0
2017-Mar-22 16:33N 43°46' W 007°33'2 2.4
2017-Mar-22 15:33N 43°48' W 007°31'4 3.7
2017-Mar-22 14:33N 43°49' W 007°36'3 2.7
2017-Mar-22 13:33N 43°52' W 007°36'6 0.6
2017-Mar-22 03:19N 43°57' W 007°41'5 6.4
2017-Mar-22 02:33N 43°52' W 007°38'7 7.0
2017-Mar-22 01:33N 43°45' W 007°36'5 4.6
2017-Mar-22 00:34N 43°41' W 007°36'0 0.0
2017-Mar-21 23:33N 43°41' W 007°36'0 0.0
2017-Mar-21 22:33N 43°41' W 007°36'0 0.0
2017-Mar-21 21:34N 43°41' W 007°36'0 0.0
2017-Mar-21 20:34N 43°41' W 007°36'0 0.2
2017-Mar-21 19:33N 43°41' W 007°36'0 0.0
2017-Mar-21 18:33N 43°41' W 007°36'6 6.2
2017-Mar-21 17:34N 43°45' W 007°30'79 5.3
2017-Mar-21 02:33N 43°36' W 005°41'3 0.7
2017-Mar-20 22:04N 43°33' W 005°42'0 0.0
2017-Mar-20 21:31N 43°33' W 005°42'0 0.0
2017-Mar-20 20:33N 43°33' W 005°42'0 0.2
2017-Mar-20 19:34N 43°33' W 005°41'7 6.5
2017-Mar-20 18:33N 43°36' W 005°33'26 5.2
2017-Mar-20 13:30N 43°42' W 004°58'21 1.7
2017-Mar-20 01:32N 43°43' W 005°27'  
Track history (hours):
 
Tides and Currents Weather Stations Pressure Air Temp Water Temp Dewpoint Dewpoint Depression Visibility Wind Speed Wind Dir Waves Ship Positions

Bautista Pino

Last reported at 2017-Mar-27 00:13 UTC. Time now 2017-Mar-27 14:41 UTC.
Position N 43°46' W 007°27'.

Length 29 m; draft 3.5 m.

Type: Fishing. MMSI: 224181290.

Date/timePositionNaut miles runAvg speedWind from/ knotsBaromVisibWave heightAir tempDewpointWater temp
2017-Mar-27 00:13N 43°46' W 007°27'6 9.5
2017-Mar-26 23:34N 43°44' W 007°35'2 1.5
2017-Mar-26 22:33N 43°45' W 007°33'5 4.5
2017-Mar-26 21:34N 43°41' W 007°36'0 0.0
2017-Mar-26 20:34N 43°41' W 007°36'0 0.0
2017-Mar-25 08:34N 43°41' W 007°36'0 0.0
2017-Mar-25 07:33N 43°41' W 007°36'0 0.0
2017-Mar-24 20:27N 43°41' W 007°36'2 2.0
2017-Mar-24 19:33N 43°43' W 007°36'9 8.6
2017-Mar-24 18:33N 43°50' W 007°42'3 0.2
2017-Mar-24 00:22N 43°48' W 007°40'6 7.8
2017-Mar-23 23:33N 43°42' W 007°36'1 1.1
2017-Mar-23 22:33N 43°41' W 007°36'5 4.8
2017-Mar-23 21:33N 43°45' W 007°33'5 0.4
2017-Mar-23 08:28N 43°46' W 007°26'4 3.8
2017-Mar-23 07:33N 43°47' W 007°31'4 4.0
2017-Mar-23 06:33N 43°48' W 007°36'3 2.7
2017-Mar-23 05:33N 43°50' W 007°39'2 2.4
2017-Mar-23 04:33N 43°48' W 007°38'7 7.0
2017-Mar-23 03:33N 43°41' W 007°36'0 0.0
2017-Mar-23 02:33N 43°41' W 007°36'0 0.0
2017-Mar-23 01:33N 43°41' W 007°36'0 0.0
2017-Mar-23 00:33N 43°41' W 007°36'0 0.0
2017-Mar-22 23:33N 43°41' W 007°36'0 0.0
2017-Mar-22 22:33N 43°41' W 007°36'0 0.0
2017-Mar-22 21:33N 43°41' W 007°36'0 0.0
2017-Mar-22 20:33N 43°41' W 007°36'0 0.0
2017-Mar-22 19:33N 43°41' W 007°36'0 0.0
2017-Mar-22 18:33N 43°41' W 007°36'2 1.9
2017-Mar-22 17:33N 43°43' W 007°36'4 4.0
2017-Mar-22 16:33N 43°46' W 007°33'2 2.4
2017-Mar-22 15:33N 43°48' W 007°31'4 3.7
2017-Mar-22 14:33N 43°49' W 007°36'3 2.7
2017-Mar-22 13:33N 43°52' W 007°36'6 0.6
2017-Mar-22 03:19N 43°57' W 007°41'5 6.4
2017-Mar-22 02:33N 43°52' W 007°38'7 7.0
2017-Mar-22 01:33N 43°45' W 007°36'5 4.6
2017-Mar-22 00:34N 43°41' W 007°36'0 0.0
2017-Mar-21 23:33N 43°41' W 007°36'0 0.0
2017-Mar-21 22:33N 43°41' W 007°36'0 0.0
2017-Mar-21 21:34N 43°41' W 007°36'0 0.0
2017-Mar-21 20:34N 43°41' W 007°36'0 0.2
2017-Mar-21 19:33N 43°41' W 007°36'0 0.0
2017-Mar-21 18:33N 43°41' W 007°36'6 6.2
2017-Mar-21 17:34N 43°45' W 007°30'79 5.3
2017-Mar-21 02:33N 43°36' W 005°41'3 0.7
2017-Mar-20 22:04N 43°33' W 005°42'0 0.0
2017-Mar-20 21:31N 43°33' W 005°42'0 0.0
2017-Mar-20 20:33N 43°33' W 005°42'0 0.2
2017-Mar-20 19:34N 43°33' W 005°41'7 6.5
2017-Mar-20 18:33N 43°36' W 005°33'26 5.2
2017-Mar-20 13:30N 43°42' W 004°58'21 1.7
2017-Mar-20 01:32N 43°43' W 005°27'  

Dump ship's entire track history